Time;durP1;ratioP1;P1;durP2;ratioP2;P2;SDS_P1;SDS_P2;PMS_P1;PMS_P2;Temp;Humidity;BMP_temperature;BMP_pressure;BME280_temperature;BME280_humidity;BME280_pressure;Samples;Min_cycle;Max_cycle;Signal;HPM_P1;HPM_P2
2021/11/27 00:00:29;;;;;;;;;;;4.70;91.90;;;;;;5031521;28;19932;-79
2021/11/27 00:02:57;;;;;;;;;;;4.60;92.10;;;;;;5031816;28;19921;-79
2021/11/27 00:05:24;;;;;;;;;;;4.60;92.30;;;;;;5022713;28;19960;-76
2021/11/27 00:07:52;;;;;;;;;;;4.50;92.10;;;;;;5029613;28;19935;-81
2021/11/27 00:10:22;;;;;;;;;;;4.60;91.80;;;;;;5026374;28;20309;-81
2021/11/27 00:12:49;;;;;;;;;;;4.50;91.90;;;;;;5030235;28;20476;-79
2021/11/27 00:15:17;;;;;;;;;;;4.50;91.70;;;;;;5031988;28;19968;-76
2021/11/27 00:17:44;;;;;;;;;;;4.50;91.70;;;;;;5028394;28;19948;-81
2021/11/27 00:20:16;;;;;;;;;;;4.50;92.20;;;;;;5017890;28;19921;-78
2021/11/27 00:22:42;;;;;;;;;;;4.70;92.80;;;;;;5016849;28;20403;-78
2021/11/27 00:25:10;;;;;;;;;;;4.70;92.20;;;;;;5025351;28;20004;-79
2021/11/27 00:27:37;;;;;;;;;;;4.70;91.30;;;;;;5023511;28;20011;-81
2021/11/27 00:30:05;;;;;;;;;;;4.50;90.90;;;;;;5027642;28;19929;-81
2021/11/27 00:32:31;;;;;;;;;;;4.40;91.30;;;;;;5023541;28;19925;-79
2021/11/27 00:34:58;;;;;;;;;;;4.30;91.60;;;;;;5026247;28;19921;-77
2021/11/27 00:37:25;;;;;;;;;;;4.10;92.30;;;;;;5023342;28;20442;-81
2021/11/27 00:39:52;;;;;;;;;;;4.00;93.00;;;;;;5031234;28;19932;-78
2021/11/27 00:42:19;;;;;;;;;;;4.00;92.60;;;;;;5029134;28;20384;-81
2021/11/27 00:44:46;;;;;;;;;;;4.00;92.40;;;;;;5028556;28;20267;-79
2021/11/27 00:47:13;;;;;;;;;;;4.00;92.40;;;;;;5030010;28;20376;-81
2021/11/27 00:49:39;;;;;;;;;;;4.00;92.60;;;;;;5030792;28;19972;-79
2021/11/27 00:52:06;;;;;;;;;;;3.90;92.40;;;;;;5020553;28;20484;-79
2021/11/27 00:54:33;;;;;;;;;;;3.80;92.60;;;;;;5029939;28;20332;-79
2021/11/27 00:57:00;;;;;;;;;;;3.80;92.80;;;;;;5034965;28;19921;-76
2021/11/27 00:59:27;;;;;;;;;;;3.80;92.70;;;;;;5033838;28;19925;-79
2021/11/27 01:01:54;;;;;;;;;;;3.80;92.80;;;;;;5034028;28;19925;-79
2021/11/27 01:04:23;;;;;;;;;;;3.70;92.80;;;;;;5034330;28;19921;-78
2021/11/27 01:06:50;;;;;;;;;;;3.70;92.80;;;;;;5033930;28;19968;-80
2021/11/27 01:09:18;;;;;;;;;;;3.70;92.70;;;;;;5032419;28;19928;-76
2021/11/27 01:11:47;;;;;;;;;;;3.60;92.60;;;;;;5026317;28;20335;-81
2021/11/27 01:14:17;;;;;;;;;;;3.50;92.60;;;;;;5024880;28;19925;-79
2021/11/27 01:16:46;;;;;;;;;;;3.50;92.80;;;;;;5023954;28;19925;-77
2021/11/27 01:19:13;;;;;;;;;;;3.50;92.90;;;;;;5021932;28;20384;-81
2021/11/27 01:21:42;;;;;;;;;;;3.40;93.00;;;;;;5014027;28;19964;-81
2021/11/27 01:24:11;;;;;;;;;;;3.40;93.00;;;;;;5029450;28;20365;-77
2021/11/27 01:26:38;;;;;;;;;;;3.40;92.90;;;;;;5034383;28;20015;-76
2021/11/27 01:29:21;;;;;;;;;;;3.40;92.90;;;;;;5020826;28;19921;-79
2021/11/27 01:31:49;;;;;;;;;;;3.40;93.00;;;;;;5030715;28;19928;-76
2021/11/27 01:34:16;;;;;;;;;;;3.30;93.10;;;;;;5031213;28;19921;-76
2021/11/27 01:36:43;;;;;;;;;;;3.30;93.00;;;;;;5032848;28;19925;-81
2021/11/27 01:39:09;;;;;;;;;;;3.30;93.30;;;;;;5034270;28;19960;-81
2021/11/27 01:41:36;;;;;;;;;;;3.30;93.70;;;;;;5029581;28;19921;-78
2021/11/27 01:44:04;;;;;;;;;;;3.40;94.00;;;;;;5034028;28;19928;-79
2021/11/27 01:46:31;;;;;;;;;;;3.40;93.90;;;;;;5021960;28;19951;-76
2021/11/27 01:48:58;;;;;;;;;;;3.40;93.80;;;;;;5024571;28;20365;-76
2021/11/27 01:51:25;;;;;;;;;;;3.40;93.60;;;;;;5023380;28;19922;-78
2021/11/27 01:53:55;;;;;;;;;;;3.40;93.40;;;;;;5027649;28;20344;-74
2021/11/27 01:56:26;;;;;;;;;;;3.40;93.30;;;;;;5030332;28;20424;-78
2021/11/27 01:58:54;;;;;;;;;;;3.40;93.50;;;;;;5028044;28;20391;-79
2021/11/27 02:01:23;;;;;;;;;;;3.40;93.60;;;;;;5015582;28;19929;-76
2021/11/27 02:03:50;;;;;;;;;;;3.30;93.30;;;;;;5033197;28;19921;-81
2021/11/27 02:06:19;;;;;;;;;;;3.20;93.10;;;;;;5023517;28;19964;-79
2021/11/27 02:08:49;;;;;;;;;;;3.10;93.20;;;;;;5018358;28;19921;-79
2021/11/27 02:11:25;;;;;;;;;;;3.10;93.70;;;;;;5022190;28;19927;-76
2021/11/27 02:13:53;;;;;;;;;;;3.20;93.70;;;;;;5032065;28;19925;-80
2021/11/27 02:16:20;;;;;;;;;;;3.20;93.70;;;;;;5029518;28;19925;-78
2021/11/27 02:18:47;;;;;;;;;;;3.10;93.60;;;;;;5032924;28;19928;-78
2021/11/27 02:21:16;;;;;;;;;;;3.10;93.60;;;;;;5020280;28;19925;-78
2021/11/27 02:23:43;;;;;;;;;;;3.10;93.40;;;;;;5023436;28;19995;-79
2021/11/27 02:26:13;;;;;;;;;;;3.10;93.40;;;;;;5027357;28;19999;-80
2021/11/27 02:28:46;;;;;;;;;;;3.10;93.40;;;;;;5021555;28;19925;-78
2021/11/27 02:31:13;;;;;;;;;;;3.00;93.00;;;;;;5027063;28;20417;-81
2021/11/27 02:33:40;;;;;;;;;;;2.90;93.00;;;;;;5029547;28;19921;-78
2021/11/27 02:36:07;;;;;;;;;;;2.90;93.10;;;;;;5030703;28;19931;-81
2021/11/27 02:38:34;;;;;;;;;;;2.80;93.60;;;;;;5030161;28;19928;-78
2021/11/27 02:41:01;;;;;;;;;;;2.80;93.70;;;;;;5027699;28;19971;-79
2021/11/27 02:43:29;;;;;;;;;;;2.80;93.70;;;;;;5033085;28;19925;-81
2021/11/27 02:45:56;;;;;;;;;;;2.70;93.80;;;;;;5018929;28;20012;-78
2021/11/27 02:48:23;;;;;;;;;;;2.70;93.70;;;;;;5030728;28;19994;-76
2021/11/27 02:50:49;;;;;;;;;;;2.70;93.80;;;;;;5014332;28;19929;-79
2021/11/27 02:53:16;;;;;;;;;;;2.70;93.80;;;;;;5032080;28;20316;-79
2021/11/27 02:55:44;;;;;;;;;;;2.70;94.40;;;;;;5019813;28;19967;-78
2021/11/27 02:58:11;;;;;;;;;;;2.80;94.30;;;;;;5026003;28;19921;-80
2021/11/27 03:00:38;;;;;;;;;;;2.80;94.20;;;;;;5022221;28;19921;-77
2021/11/27 03:03:05;;;;;;;;;;;2.70;93.80;;;;;;5025394;28;20013;-76
2021/11/27 03:05:32;;;;;;;;;;;2.70;93.70;;;;;;5028456;28;20384;-79
2021/11/27 03:08:00;;;;;;;;;;;2.60;93.60;;;;;;5025943;28;20016;-79
2021/11/27 03:10:27;;;;;;;;;;;2.50;93.50;;;;;;5022824;28;20008;-79
2021/11/27 03:12:54;;;;;;;;;;;2.50;93.60;;;;;;5023279;28;20361;-76
2021/11/27 03:15:21;;;;;;;;;;;2.50;93.50;;;;;;5027214;28;19920;-79
2021/11/27 03:17:48;;;;;;;;;;;2.50;93.40;;;;;;5032444;28;19928;-78
2021/11/27 03:20:17;;;;;;;;;;;2.40;93.40;;;;;;5025865;28;20283;-80
2021/11/27 03:22:44;;;;;;;;;;;2.40;93.40;;;;;;5029347;28;20286;-80
2021/11/27 03:25:11;;;;;;;;;;;2.40;93.70;;;;;;5034344;28;19929;-81
2021/11/27 03:27:39;;;;;;;;;;;2.30;92.90;;;;;;5031243;28;19921;-78
2021/11/27 03:30:08;;;;;;;;;;;2.20;92.80;;;;;;5027786;28;20369;-81
2021/11/27 03:32:35;;;;;;;;;;;2.10;93.20;;;;;;5029056;28;19975;-80
2021/11/27 03:35:02;;;;;;;;;;;2.10;93.20;;;;;;5023378;28;19922;-79
2021/11/27 03:37:29;;;;;;;;;;;2.10;93.50;;;;;;5022110;28;19932;-81
2021/11/27 03:39:56;;;;;;;;;;;2.10;93.60;;;;;;5028362;28;19929;-76
2021/11/27 03:42:23;;;;;;;;;;;2.10;94.00;;;;;;5027883;28;19964;-76
2021/11/27 03:44:50;;;;;;;;;;;2.20;94.40;;;;;;5023504;28;20416;-79
2021/11/27 03:47:17;;;;;;;;;;;2.20;94.70;;;;;;5021720;28;19922;-76
2021/11/27 03:49:44;;;;;;;;;;;2.20;94.50;;;;;;5030126;28;19924;-79
2021/11/27 03:52:11;;;;;;;;;;;2.20;94.40;;;;;;5032840;28;19928;-79
2021/11/27 03:54:38;;;;;;;;;;;2.20;94.40;;;;;;5030134;28;19925;-76
2021/11/27 03:57:05;;;;;;;;;;;2.20;94.30;;;;;;5036960;28;19951;-77
2021/11/27 03:59:32;;;;;;;;;;;2.20;94.10;;;;;;5037280;28;19921;-79
2021/11/27 04:01:59;;;;;;;;;;;2.20;93.90;;;;;;5022123;28;19932;-77
2021/11/27 04:04:26;;;;;;;;;;;2.10;94.40;;;;;;5025516;28;20008;-79
2021/11/27 04:06:54;;;;;;;;;;;2.10;94.00;;;;;;5029969;28;20007;-79
2021/11/27 04:09:21;;;;;;;;;;;1.90;92.80;;;;;;5025312;28;19921;-78
2021/11/27 04:11:48;;;;;;;;;;;1.70;92.80;;;;;;5026524;28;20412;-76
2021/11/27 04:14:15;;;;;;;;;;;1.70;93.00;;;;;;5035441;28;19936;-78
2021/11/27 04:16:42;;;;;;;;;;;1.70;93.30;;;;;;5035395;28;19965;-79
2021/11/27 04:19:09;;;;;;;;;;;1.60;93.30;;;;;;5021954;28;19921;-79
2021/11/27 04:21:36;;;;;;;;;;;1.60;93.50;;;;;;5019561;28;19928;-78
2021/11/27 04:24:03;;;;;;;;;;;1.60;93.50;;;;;;5040741;28;19921;-79
2021/11/27 04:26:30;;;;;;;;;;;1.50;93.50;;;;;;5035173;28;19925;-79
2021/11/27 04:28:58;;;;;;;;;;;1.50;93.70;;;;;;5030417;28;19944;-80
2021/11/27 04:31:25;;;;;;;;;;;1.60;93.80;;;;;;5017434;28;19952;-76
2021/11/27 04:33:53;;;;;;;;;;;1.60;93.70;;;;;;5026902;28;19927;-79
2021/11/27 04:36:20;;;;;;;;;;;1.60;93.70;;;;;;5021287;28;19932;-76
2021/11/27 04:38:47;;;;;;;;;;;1.60;93.80;;;;;;5030637;28;19921;-79
2021/11/27 04:41:14;;;;;;;;;;;1.70;94.10;;;;;;5035611;28;19948;-80
2021/11/27 04:43:41;;;;;;;;;;;1.70;94.10;;;;;;5030499;28;19921;-76
2021/11/27 04:46:08;;;;;;;;;;;1.80;94.00;;;;;;5033460;28;20423;-79
2021/11/27 04:48:35;;;;;;;;;;;1.80;94.40;;;;;;5032748;28;19921;-79
2021/11/27 04:51:02;;;;;;;;;;;1.80;93.90;;;;;;5027593;28;20369;-79
2021/11/27 04:53:30;;;;;;;;;;;1.80;93.90;;;;;;5022287;28;20392;-79
2021/11/27 04:55:59;;;;;;;;;;;1.50;93.20;;;;;;5015996;28;19965;-80
2021/11/27 04:58:26;;;;;;;;;;;1.40;93.50;;;;;;5035699;28;19928;-79
2021/11/27 05:00:53;;;;;;;;;;;1.30;93.90;;;;;;5027966;28;19967;-79
2021/11/27 05:03:21;;;;;;;;;;;1.30;94.20;;;;;;5028974;28;19928;-81
2021/11/27 05:05:48;;;;;;;;;;;1.40;94.40;;;;;;5036002;28;19921;-81
2021/11/27 05:08:16;;;;;;;;;;;1.40;94.40;;;;;;5025702;28;19971;-81
2021/11/27 05:10:43;;;;;;;;;;;1.50;94.50;;;;;;5034956;28;19924;-79
2021/11/27 05:13:10;;;;;;;;;;;1.60;94.50;;;;;;5035587;28;19948;-80
2021/11/27 05:15:37;;;;;;;;;;;1.70;94.40;;;;;;5033838;28;19983;-81
2021/11/27 05:18:04;;;;;;;;;;;1.70;94.30;;;;;;5033487;28;20300;-82
2021/11/27 05:20:31;;;;;;;;;;;1.70;94.10;;;;;;5034796;28;19928;-80
2021/11/27 05:22:58;;;;;;;;;;;1.80;94.00;;;;;;5020218;28;20420;-76
2021/11/27 05:25:25;;;;;;;;;;;1.70;94.10;;;;;;5029406;28;19928;-81
2021/11/27 05:27:52;;;;;;;;;;;1.70;94.10;;;;;;5029535;28;19975;-76
2021/11/27 05:30:20;;;;;;;;;;;1.80;94.30;;;;;;5017424;28;20389;-79
2021/11/27 05:35:20;;;;;;;;;;;1.90;94.20;;;;;;5024621;28;19921;-79
2021/11/27 05:37:47;;;;;;;;;;;1.90;94.20;;;;;;5030219;28;19920;-80
2021/11/27 05:40:14;;;;;;;;;;;1.90;94.00;;;;;;5033016;28;19925;-77
2021/11/27 05:42:43;;;;;;;;;;;2.00;94.00;;;;;;5033456;28;19920;-80
2021/11/27 05:45:10;;;;;;;;;;;2.00;93.90;;;;;;5030736;28;19925;-79
2021/11/27 05:47:38;;;;;;;;;;;2.00;93.80;;;;;;5029048;28;20370;-79
2021/11/27 05:50:05;;;;;;;;;;;2.00;93.90;;;;;;5021083;28;19972;-79
2021/11/27 05:52:32;;;;;;;;;;;2.00;93.90;;;;;;5034131;28;19925;-79
2021/11/27 05:54:59;;;;;;;;;;;2.00;93.80;;;;;;5031691;28;20002;-76
2021/11/27 05:57:26;;;;;;;;;;;2.10;93.90;;;;;;5020200;28;19944;-77
2021/11/27 05:59:52;;;;;;;;;;;2.10;93.80;;;;;;5038992;28;19987;-79
2021/11/27 06:02:19;;;;;;;;;;;2.10;93.70;;;;;;5030675;28;20392;-81
2021/11/27 06:04:46;;;;;;;;;;;2.00;93.70;;;;;;5034752;28;19921;-77
2021/11/27 06:07:13;;;;;;;;;;;2.00;93.80;;;;;;5025852;28;19927;-78
2021/11/27 06:09:40;;;;;;;;;;;2.00;93.80;;;;;;5016239;28;19921;-76
2021/11/27 06:12:07;;;;;;;;;;;2.00;93.70;;;;;;5023089;28;19921;-79
2021/11/27 06:14:34;;;;;;;;;;;1.90;93.70;;;;;;5028554;28;20020;-80
2021/11/27 06:17:01;;;;;;;;;;;1.90;93.70;;;;;;5033278;28;19928;-79
2021/11/27 06:19:28;;;;;;;;;;;1.90;93.70;;;;;;5021177;28;19932;-79
2021/11/27 06:21:55;;;;;;;;;;;1.90;93.70;;;;;;5025082;28;19925;-78
2021/11/27 06:24:21;;;;;;;;;;;1.80;93.70;;;;;;5020607;28;19928;-79
2021/11/27 06:26:48;;;;;;;;;;;1.80;93.90;;;;;;5034343;28;19921;-79
2021/11/27 06:29:15;;;;;;;;;;;1.90;93.90;;;;;;5024380;28;19928;-79
2021/11/27 06:31:42;;;;;;;;;;;1.80;93.80;;;;;;5013282;28;19921;-77
2021/11/27 06:34:10;;;;;;;;;;;1.80;93.80;;;;;;5025143;28;19928;-76
2021/11/27 06:36:37;;;;;;;;;;;1.70;93.70;;;;;;5030530;28;20376;-80
2021/11/27 06:39:03;;;;;;;;;;;1.70;93.60;;;;;;5035524;28;19934;-76
2021/11/27 06:41:30;;;;;;;;;;;1.70;93.50;;;;;;5033957;28;19949;-80
2021/11/27 06:43:57;;;;;;;;;;;1.70;93.40;;;;;;5030501;28;19944;-76
2021/11/27 06:46:24;;;;;;;;;;;1.60;93.50;;;;;;5029554;28;19929;-79
2021/11/27 06:48:51;;;;;;;;;;;1.60;93.50;;;;;;5028786;28;19935;-76
2021/11/27 06:51:18;;;;;;;;;;;1.60;93.60;;;;;;5032557;28;19921;-81
2021/11/27 06:53:44;;;;;;;;;;;1.60;93.50;;;;;;5017693;28;19929;-80
2021/11/27 06:56:11;;;;;;;;;;;1.50;93.40;;;;;;5030368;28;19925;-79
2021/11/27 06:58:38;;;;;;;;;;;1.60;93.20;;;;;;5034978;28;19979;-77
2021/11/27 07:01:05;;;;;;;;;;;1.60;93.10;;;;;;5036403;28;19921;-79
2021/11/27 07:03:33;;;;;;;;;;;1.60;92.90;;;;;;5021772;28;19921;-76
2021/11/27 07:06:02;;;;;;;;;;;1.60;92.80;;;;;;5027762;28;19948;-79
2021/11/27 07:08:28;;;;;;;;;;;1.60;92.60;;;;;;5020905;28;19921;-79
2021/11/27 07:10:55;;;;;;;;;;;1.60;92.40;;;;;;5030312;28;19920;-79
2021/11/27 07:13:22;;;;;;;;;;;1.70;92.40;;;;;;5022806;28;19933;-79
2021/11/27 07:15:49;;;;;;;;;;;1.70;92.20;;;;;;5027997;28;19931;-80
2021/11/27 07:18:16;;;;;;;;;;;1.80;91.70;;;;;;5032584;28;19971;-81
2021/11/27 07:20:43;;;;;;;;;;;1.80;91.50;;;;;;5022608;28;20361;-79
2021/11/27 07:23:10;;;;;;;;;;;1.80;91.60;;;;;;5032882;28;20488;-78
2021/11/27 07:25:37;;;;;;;;;;;1.80;91.70;;;;;;5036242;28;20324;-76
2021/11/27 07:28:07;;;;;;;;;;;1.80;91.60;;;;;;5034455;28;19994;-76
2021/11/27 07:30:34;;;;;;;;;;;1.70;92.00;;;;;;5035147;28;19925;-78
2021/11/27 07:33:01;;;;;;;;;;;1.70;92.30;;;;;;5029444;28;20424;-80
2021/11/27 07:35:28;;;;;;;;;;;1.90;92.70;;;;;;5026254;28;20369;-78
2021/11/27 07:37:55;;;;;;;;;;;2.30;92.50;;;;;;5032699;28;19983;-78
2021/11/27 07:40:22;;;;;;;;;;;2.60;91.70;;;;;;5037665;28;19928;-81
2021/11/27 07:42:52;;;;;;;;;;;2.70;91.40;;;;;;5035527;28;19925;-81
2021/11/27 07:45:20;;;;;;;;;;;2.80;91.30;;;;;;5030022;28;19925;-77
2021/11/27 07:47:46;;;;;;;;;;;2.90;91.00;;;;;;5030224;28;19921;-79
2021/11/27 07:50:14;;;;;;;;;;;3.00;91.00;;;;;;5031528;28;19936;-82
2021/11/27 07:52:41;;;;;;;;;;;3.20;90.90;;;;;;5030780;28;19928;-77
2021/11/27 07:55:09;;;;;;;;;;;3.50;90.80;;;;;;5029187;28;19926;-81
2021/11/27 07:57:35;;;;;;;;;;;3.60;90.50;;;;;;5020478;28;20388;-76
2021/11/27 08:00:03;;;;;;;;;;;3.80;90.20;;;;;;5026625;28;19957;-76
2021/11/27 08:02:30;;;;;;;;;;;3.90;89.80;;;;;;5020915;28;19976;-76
2021/11/27 08:04:57;;;;;;;;;;;4.10;89.60;;;;;;5030075;28;19967;-77
2021/11/27 08:07:24;;;;;;;;;;;4.30;88.90;;;;;;5027215;28;20024;-80
2021/11/27 08:09:51;;;;;;;;;;;4.40;86.00;;;;;;5027327;28;19972;-79
2021/11/27 08:12:18;;;;;;;;;;;4.60;85.40;;;;;;5031463;28;19921;-79
2021/11/27 08:14:45;;;;;;;;;;;4.80;85.10;;;;;;5029840;28;19925;-81
2021/11/27 08:17:12;;;;;;;;;;;5.00;83.90;;;;;;5036543;28;19932;-79
2021/11/27 08:19:38;;;;;;;;;;;5.20;82.70;;;;;;5039877;28;20374;-80
2021/11/27 08:22:05;;;;;;;;;;;5.40;79.60;;;;;;5042244;28;19921;-81
2021/11/27 08:24:32;;;;;;;;;;;5.60;76.40;;;;;;5029891;28;19921;-76
2021/11/27 08:26:59;;;;;;;;;;;5.70;77.30;;;;;;5035064;28;19929;-80
2021/11/27 08:29:26;;;;;;;;;;;5.80;80.60;;;;;;5032677;28;19928;-80
2021/11/27 08:31:53;;;;;;;;;;;5.90;80.40;;;;;;5041676;28;19921;-80
2021/11/27 08:34:20;;;;;;;;;;;6.00;80.20;;;;;;5040643;28;19990;-81
2021/11/27 08:36:47;;;;;;;;;;;6.10;80.40;;;;;;5022698;28;19922;-76
2021/11/27 08:39:14;;;;;;;;;;;6.30;79.30;;;;;;5023226;28;19921;-80
2021/11/27 08:41:43;;;;;;;;;;;6.30;78.40;;;;;;5033469;28;19967;-76
2021/11/27 08:44:10;;;;;;;;;;;6.40;77.00;;;;;;5033887;28;19933;-79
2021/11/27 08:46:37;;;;;;;;;;;6.50;78.70;;;;;;5019538;28;19922;-76
2021/11/27 08:49:03;;;;;;;;;;;6.50;78.70;;;;;;5031815;28;20277;-79
2021/11/27 08:51:37;;;;;;;;;;;6.60;79.60;;;;;;5031127;28;19925;-79
2021/11/27 08:54:04;;;;;;;;;;;6.60;75.20;;;;;;5026387;28;19921;-81
2021/11/27 08:56:31;;;;;;;;;;;6.70;75.80;;;;;;5031047;28;19921;-80
2021/11/27 08:58:58;;;;;;;;;;;6.70;77.00;;;;;;5020085;28;19921;-79
2021/11/27 09:01:25;;;;;;;;;;;6.90;78.60;;;;;;5029103;28;20366;-79
2021/11/27 09:03:51;;;;;;;;;;;7.00;79.50;;;;;;5027237;28;19936;-79
2021/11/27 09:06:18;;;;;;;;;;;7.00;80.00;;;;;;5024270;28;19921;-79
2021/11/27 09:08:45;;;;;;;;;;;7.10;80.90;;;;;;5026949;28;19929;-79
2021/11/27 09:11:14;;;;;;;;;;;7.00;81.10;;;;;;5024785;28;19922;-80
2021/11/27 09:13:42;;;;;;;;;;;7.00;81.60;;;;;;5024648;28;20435;-77
2021/11/27 09:16:09;;;;;;;;;;;7.00;82.20;;;;;;5031868;28;20499;-79
2021/11/27 09:18:56;;;;;;;;;;;6.90;82.50;;;;;;5037772;28;19991;-76
2021/11/27 09:21:23;;;;;;;;;;;6.80;83.20;;;;;;5041865;28;19921;-79
2021/11/27 09:23:50;;;;;;;;;;;6.80;84.10;;;;;;5029544;28;19929;-76
2021/11/27 09:26:17;;;;;;;;;;;6.90;83.00;;;;;;5016942;28;19975;-79
2021/11/27 09:28:43;;;;;;;;;;;6.90;81.50;;;;;;5022425;28;19933;-78
2021/11/27 09:31:10;;;;;;;;;;;6.90;82.00;;;;;;5033037;28;19936;-79
2021/11/27 09:33:37;;;;;;;;;;;7.00;81.50;;;;;;5025251;28;20054;-79
2021/11/27 09:36:06;;;;;;;;;;;7.00;80.80;;;;;;5029824;28;19925;-77
2021/11/27 09:38:34;;;;;;;;;;;6.90;80.30;;;;;;5028815;28;19920;-76
2021/11/27 09:41:16;;;;;;;;;;;6.80;79.50;;;;;;5028547;28;20361;-76
2021/11/27 09:43:44;;;;;;;;;;;6.70;80.60;;;;;;5016554;28;19929;-80
2021/11/27 09:46:12;;;;;;;;;;;6.60;81.60;;;;;;5041529;28;19921;-79
2021/11/27 09:48:41;;;;;;;;;;;6.50;81.80;;;;;;5042750;28;19921;-81
2021/11/27 09:51:08;;;;;;;;;;;6.50;81.20;;;;;;5036847;28;19920;-79
2021/11/27 09:53:36;;;;;;;;;;;6.50;81.80;;;;;;5033967;28;20435;-79
2021/11/27 09:56:03;;;;;;;;;;;6.40;81.10;;;;;;5029660;28;19925;-79
2021/11/27 09:58:30;;;;;;;;;;;6.30;81.10;;;;;;5028492;28;19982;-76
2021/11/27 10:01:00;;;;;;;;;;;6.30;81.50;;;;;;5039961;28;19929;-76
2021/11/27 10:03:29;;;;;;;;;;;6.30;80.60;;;;;;5033573;28;19932;-79
2021/11/27 10:05:56;;;;;;;;;;;6.30;81.90;;;;;;5032892;28;19921;-76
2021/11/27 10:08:24;;;;;;;;;;;6.40;81.60;;;;;;5043800;28;19921;-78
2021/11/27 10:10:51;;;;;;;;;;;6.40;82.00;;;;;;5043654;28;19921;-79
2021/11/27 10:13:21;;;;;;;;;;;6.50;81.50;;;;;;5045581;28;19921;-78
2021/11/27 10:15:49;;;;;;;;;;;6.60;80.60;;;;;;5033749;28;19971;-76
2021/11/27 10:18:16;;;;;;;;;;;6.70;80.50;;;;;;5032140;28;19925;-80
2021/11/27 10:20:43;;;;;;;;;;;6.70;80.00;;;;;;5031851;28;20420;-76
2021/11/27 10:23:10;;;;;;;;;;;6.80;80.70;;;;;;5031791;28;19924;-79
2021/11/27 10:25:38;;;;;;;;;;;7.00;80.80;;;;;;5033753;28;19925;-80
2021/11/27 10:28:16;;;;;;;;;;;7.10;78.90;;;;;;5038111;28;19931;-76
2021/11/27 10:30:58;;;;;;;;;;;7.20;79.00;;;;;;5027901;28;19921;-80
2021/11/27 10:33:26;;;;;;;;;;;7.30;77.70;;;;;;5050889;28;19924;-79
2021/11/27 10:35:58;;;;;;;;;;;7.40;77.20;;;;;;5040173;28;19921;-79
2021/11/27 10:38:37;;;;;;;;;;;7.40;76.30;;;;;;5028730;28;19988;-80
2021/11/27 10:41:04;;;;;;;;;;;7.40;77.00;;;;;;5021594;28;20118;-76
2021/11/27 10:43:34;;;;;;;;;;;7.40;78.60;;;;;;5034229;28;19951;-79
2021/11/27 10:46:25;;;;;;;;;;;7.50;77.70;;;;;;5031048;28;19944;-79
2021/11/27 10:48:52;;;;;;;;;;;7.60;78.50;;;;;;5040317;28;19928;-81
2021/11/27 10:51:21;;;;;;;;;;;7.70;78.30;;;;;;5025693;28;20329;-76
2021/11/27 10:53:55;;;;;;;;;;;7.90;78.30;;;;;;5026242;28;19933;-80
2021/11/27 10:56:37;;;;;;;;;;;8.00;79.30;;;;;;5029127;28;19921;-79
2021/11/27 10:59:05;;;;;;;;;;;8.20;80.30;;;;;;5025271;28;19928;-80
2021/11/27 11:01:52;;;;;;;;;;;8.40;81.20;;;;;;5038149;28;19921;-81
2021/11/27 11:04:19;;;;;;;;;;;8.60;80.20;;;;;;5027617;28;19921;-78
2021/11/27 11:06:45;;;;;;;;;;;8.60;80.20;;;;;;5033116;28;19924;-76
2021/11/27 11:09:15;;;;;;;;;;;8.70;80.80;;;;;;5032062;28;19952;-75
2021/11/27 11:11:42;;;;;;;;;;;8.80;80.30;;;;;;5029674;28;19936;-79
2021/11/27 11:14:22;;;;;;;;;;;8.90;80.30;;;;;;5039526;28;19929;-78
2021/11/27 11:17:00;;;;;;;23.30;16.70;;;8.90;79.70;;;;;;5022034;28;20008;-80
2021/11/27 11:19:31;;;;;;;25.33;17.42;;;9.10;79.60;;;;;;5036168;28;20054;-79
2021/11/27 11:22:13;;;;;;;26.48;20.33;;;9.20;79.40;;;;;;5016979;28;20448;-79
2021/11/27 11:24:42;;;;;;;27.33;22.00;;;9.20;78.60;;;;;;5017756;28;20782;-79
2021/11/27 11:27:10;;;;;;;27.13;22.08;;;9.30;78.40;;;;;;5027892;28;20423;-76
2021/11/27 11:29:50;;;;;;;26.33;21.73;;;9.30;78.30;;;;;;5024522;28;20860;-79
2021/11/27 11:32:27;;;;;;;29.37;23.17;;;9.40;78.40;;;;;;5032291;28;20417;-79
2021/11/27 11:34:57;;;;;;;29.15;23.33;;;9.50;78.10;;;;;;5032776;28;20782;-80
2021/11/27 11:37:26;;;;;;;;;;;9.60;77.20;;;;;;5040874;28;20084;-79
2021/11/27 11:39:54;;;;;;;28.08;19.08;;;9.60;75.50;;;;;;5019991;28;20343;-80
2021/11/27 11:42:24;;;;;;;28.40;20.17;;;9.50;77.40;;;;;;5024031;28;20516;-76
2021/11/27 11:44:53;;;;;;;27.45;18.25;;;9.50;78.00;;;;;;5046201;28;20045;-80
2021/11/27 11:47:22;;;;;;;26.77;20.00;;;9.40;76.70;;;;;;5042657;28;20041;-76
2021/11/27 11:50:03;;;;;;;27.08;18.20;;;9.20;77.10;;;;;;5034214;28;20154;-79
2021/11/27 11:53:00;;;;;;;27.77;19.40;;;9.10;76.90;;;;;;5030150;28;20513;-80
2021/11/27 11:55:27;;;;;;;28.70;20.45;;;9.00;78.00;;;;;;5032381;28;20536;-80
2021/11/27 11:58:01;;;;;;;34.03;19.73;;;8.90;78.40;;;;;;5028230;28;20103;-80
2021/11/27 12:00:28;;;;;;;;;;;9.00;78.90;;;;;;5031364;28;20049;-80
2021/11/27 12:03:04;;;;;;;;;;;9.20;79.00;;;;;;5039309;28;19925;-79
2021/11/27 12:05:32;;;;;;;;;;;9.30;78.50;;;;;;5026440;28;19925;-80
2021/11/27 12:08:01;;;;;;;;;;;9.40;78.10;;;;;;5019076;28;19976;-79
2021/11/27 12:10:45;;;;;;;27.50;18.27;;;9.40;77.50;;;;;;5016115;28;19925;-76
2021/11/27 12:13:12;;;;;;;28.45;18.83;;;9.20;78.20;;;;;;5016857;28;20042;-78
2021/11/27 12:15:44;;;;;;;28.58;19.63;;;9.40;78.50;;;;;;5021750;28;20049;-80
2021/11/27 12:18:18;;;;;;;;;;;9.40;78.30;;;;;;5019607;28;20094;-79
2021/11/27 12:20:53;;;;;;;29.65;18.95;;;9.40;77.60;;;;;;5017359;28;19928;-79
2021/11/27 12:23:34;;;;;;;;;;;9.30;76.20;;;;;;5017726;28;20053;-76
2021/11/27 12:26:10;;;;;;;;;;;9.20;78.10;;;;;;5015802;28;19921;-80
2021/11/27 12:28:37;;;;;;;;;;;9.20;77.50;;;;;;5021350;28;19926;-80
2021/11/27 12:31:06;;;;;;;;;;;9.40;77.30;;;;;;5018785;28;19925;-80
2021/11/27 12:33:52;;;;;;;;;;;9.40;76.80;;;;;;5023586;28;20012;-80
2021/11/27 12:36:35;;;;;;;;;;;9.40;76.40;;;;;;5017827;28;19969;-80
2021/11/27 12:39:20;;;;;;;;;;;9.40;76.10;;;;;;5016362;28;19921;-79
2021/11/27 12:41:51;;;;;;;;;;;9.40;76.20;;;;;;5015885;28;19922;-79
2021/11/27 12:44:27;;;;;;;;;;;9.40;76.10;;;;;;5047518;28;19929;-80
2021/11/27 12:47:19;;;;;;;;;;;9.50;76.10;;;;;;5016420;28;19995;-75
2021/11/27 12:49:46;;;;;;;;;;;9.50;76.10;;;;;;5016296;28;19921;-79
2021/11/27 12:52:27;;;;;;;;;;;9.40;76.10;;;;;;5045741;28;19921;-80
2021/11/27 12:54:55;;;;;;;;;;;9.30;75.70;;;;;;5005774;28;19922;-76
2021/11/27 12:57:22;;;;;;;;;;;9.30;76.80;;;;;;5014555;28;19921;-79
2021/11/27 13:00:05;;;;;;;;;;;9.30;76.50;;;;;;5014643;28;19940;-79
2021/11/27 13:02:32;;;;;;;;;;;9.40;77.00;;;;;;5018237;28;19936;-77
2021/11/27 13:04:59;;;;;;;;;;;9.50;76.20;;;;;;5014638;28;19921;-79
2021/11/27 13:07:26;;;;;;;;;;;9.40;75.60;;;;;;5014342;28;19952;-80
2021/11/27 13:10:03;;;;;;;;;;;9.30;75.00;;;;;;5012953;28;20297;-78
2021/11/27 13:12:30;;;;;;;;;;;9.30;76.20;;;;;;5014817;28;20392;-79
2021/11/27 13:15:17;;;;;;;;;;;9.30;76.80;;;;;;5014647;28;19925;-79
2021/11/27 13:18:03;;;;;;;;;;;9.30;76.30;;;;;;5006159;28;19932;-79
2021/11/27 13:20:43;;;;;;;;;;;9.30;76.50;;;;;;5014363;28;20479;-76
2021/11/27 13:23:10;;;;;;;;;;;9.20;76.70;;;;;;5000884;28;19922;-80
2021/11/27 13:25:41;;;;;;;;;;;9.20;76.80;;;;;;5040240;28;19932;-80
2021/11/27 13:28:28;;;;;;;;;;;9.10;77.30;;;;;;5014325;28;19925;-80
2021/11/27 13:30:57;;;;;;;;;;;9.10;77.80;;;;;;5018208;28;19926;-80
2021/11/27 13:33:25;;;;;;;;;;;9.10;77.50;;;;;;5047432;28;19925;-80
2021/11/27 13:35:52;;;;;;;;;;;9.10;77.50;;;;;;5014266;28;20396;-76
2021/11/27 13:38:26;;;;;;;;;;;9.10;77.70;;;;;;5013751;28;20378;-80
2021/11/27 13:40:53;;;;;;;;;;;9.10;77.50;;;;;;5013795;28;19921;-79
2021/11/27 13:43:21;;;;;;;;;;;9.10;77.50;;;;;;5015672;28;19959;-80
2021/11/27 13:45:48;;;;;;;;;;;9.10;77.40;;;;;;5014482;28;19921;-79
2021/11/27 13:48:15;;;;;;;;;;;9.10;78.00;;;;;;5014101;28;19972;-80
2021/11/27 13:50:49;;;;;;;;;;;9.10;77.80;;;;;;5013965;28;20320;-80
2021/11/27 13:53:17;;;;;;;;;;;9.20;77.50;;;;;;5013490;28;19922;-80
2021/11/27 13:55:49;;;;;;;;;;;9.20;77.40;;;;;;5014092;28;19921;-80
2021/11/27 13:58:18;;;;;;;;;;;9.10;77.50;;;;;;4998279;28;19972;-80
2021/11/27 14:00:45;;;;;;;;;;;9.00;77.60;;;;;;5013749;28;20272;-79
2021/11/27 14:03:18;;;;;;;;;;;9.00;77.00;;;;;;5016877;28;19935;-76
2021/11/27 14:05:50;;;;;;;;;;;9.00;77.90;;;;;;5002084;28;19925;-80
2021/11/27 14:08:22;;;;;;;;;;;9.00;78.10;;;;;;5014051;28;19925;-79
2021/11/27 14:11:05;;;;;;;;;;;8.90;78.40;;;;;;5013447;28;19929;-79
2021/11/27 14:13:34;;;;;;;;;;;9.00;77.70;;;;;;5011757;28;19921;-80
2021/11/27 14:16:00;;;;;;;;;;;8.90;77.70;;;;;;5012541;28;19925;-79
2021/11/27 14:18:29;;;;;;;;;;;9.10;77.70;;;;;;5014808;28;19996;-79
2021/11/27 14:20:58;;;;;;;;;;;9.00;77.60;;;;;;5013093;28;19965;-76
2021/11/27 14:23:30;;;;;;;;;;;9.00;77.30;;;;;;5013569;28;19921;-80
2021/11/27 14:26:02;;;;;;;;;;;9.10;77.30;;;;;;5008932;28;19925;-80
2021/11/27 14:28:30;;;;;;;;;;;9.10;77.00;;;;;;5014195;28;20386;-81
2021/11/27 14:31:05;;;;;;;;;;;9.10;77.20;;;;;;5014230;28;19976;-76
2021/11/27 14:33:33;;;;;;;;;;;9.10;77.30;;;;;;5012478;28;19921;-80
2021/11/27 14:35:59;;;;;;;;;;;9.20;77.70;;;;;;5045279;28;19925;-81